sensor_id;sensor_type;location;lat;lon;timestamp;P1;durP1;ratioP1;P2;durP2;ratioP2
54921;SDS011;40824;45.116;21.296;2023-05-29T00:00:23;13.82;;;11.00;;
54921;SDS011;40824;45.116;21.296;2023-05-29T00:02:50;12.10;;;10.40;;
54921;SDS011;40824;45.116;21.296;2023-05-29T00:05:17;20.08;;;10.60;;
54921;SDS011;40824;45.116;21.296;2023-05-29T00:07:43;16.80;;;11.60;;
54921;SDS011;40824;45.116;21.296;2023-05-29T00:10:10;12.23;;;10.30;;
54921;SDS011;40824;45.116;21.296;2023-05-29T00:12:36;17.73;;;12.13;;
54921;SDS011;40824;45.116;21.296;2023-05-29T00:15:05;13.73;;;11.13;;
54921;SDS011;40824;45.116;21.296;2023-05-29T00:17:32;12.98;;;10.77;;
54921;SDS011;40824;45.116;21.296;2023-05-29T00:19:58;14.48;;;10.82;;
54921;SDS011;40824;45.116;21.296;2023-05-29T00:22:26;16.70;;;11.80;;
54921;SDS011;40824;45.116;21.296;2023-05-29T00:24:52;12.43;;;11.13;;
54921;SDS011;40824;45.116;21.296;2023-05-29T00:27:18;13.98;;;11.98;;
54921;SDS011;40824;45.116;21.296;2023-05-29T00:29:45;14.73;;;11.48;;
54921;SDS011;40824;45.116;21.296;2023-05-29T00:32:13;12.55;;;10.63;;
54921;SDS011;40824;45.116;21.296;2023-05-29T00:34:39;16.70;;;10.93;;
54921;SDS011;40824;45.116;21.296;2023-05-29T00:37:05;11.07;;;9.98;;
54921;SDS011;40824;45.116;21.296;2023-05-29T00:39:32;12.35;;;10.02;;
54921;SDS011;40824;45.116;21.296;2023-05-29T00:41:58;10.65;;;9.10;;
54921;SDS011;40824;45.116;21.296;2023-05-29T00:44:24;12.98;;;10.23;;
54921;SDS011;40824;45.116;21.296;2023-05-29T00:46:51;12.35;;;9.23;;
54921;SDS011;40824;45.116;21.296;2023-05-29T00:49:21;10.15;;;8.93;;
54921;SDS011;40824;45.116;21.296;2023-05-29T00:51:48;12.98;;;9.90;;
54921;SDS011;40824;45.116;21.296;2023-05-29T00:54:17;13.98;;;9.23;;
54921;SDS011;40824;45.116;21.296;2023-05-29T00:56:46;11.65;;;8.85;;
54921;SDS011;40824;45.116;21.296;2023-05-29T00:59:13;10.10;;;9.05;;
54921;SDS011;40824;45.116;21.296;2023-05-29T01:01:39;11.13;;;9.68;;
54921;SDS011;40824;45.116;21.296;2023-05-29T01:04:07;11.77;;;10.38;;
54921;SDS011;40824;45.116;21.296;2023-05-29T01:06:37;11.77;;;10.43;;
54921;SDS011;40824;45.116;21.296;2023-05-29T01:09:04;10.98;;;9.32;;
54921;SDS011;40824;45.116;21.296;2023-05-29T01:11:40;12.02;;;10.57;;
54921;SDS011;40824;45.116;21.296;2023-05-29T01:14:10;12.35;;;10.70;;
54921;SDS011;40824;45.116;21.296;2023-05-29T01:16:42;15.15;;;9.48;;
54921;SDS011;40824;45.116;21.296;2023-05-29T01:19:17;13.00;;;9.07;;
54921;SDS011;40824;45.116;21.296;2023-05-29T01:24:14;12.57;;;9.65;;
54921;SDS011;40824;45.116;21.296;2023-05-29T01:29:10;12.35;;;9.18;;
54921;SDS011;40824;45.116;21.296;2023-05-29T01:31:37;12.77;;;9.25;;
54921;SDS011;40824;45.116;21.296;2023-05-29T01:34:05;11.00;;;9.25;;
54921;SDS011;40824;45.116;21.296;2023-05-29T01:36:31;10.45;;;8.95;;
54921;SDS011;40824;45.116;21.296;2023-05-29T01:38:57;15.18;;;8.18;;
54921;SDS011;40824;45.116;21.296;2023-05-29T01:41:25;9.50;;;8.18;;
54921;SDS011;40824;45.116;21.296;2023-05-29T01:43:51;12.00;;;8.63;;
54921;SDS011;40824;45.116;21.296;2023-05-29T01:46:18;14.35;;;10.35;;
54921;SDS011;40824;45.116;21.296;2023-05-29T01:48:45;14.90;;;9.93;;
54921;SDS011;40824;45.116;21.296;2023-05-29T01:51:12;23.88;;;11.98;;
54921;SDS011;40824;45.116;21.296;2023-05-29T01:53:39;16.88;;;11.38;;
54921;SDS011;40824;45.116;21.296;2023-05-29T01:56:05;18.17;;;11.52;;
54921;SDS011;40824;45.116;21.296;2023-05-29T01:58:32;15.57;;;11.15;;
54921;SDS011;40824;45.116;21.296;2023-05-29T02:00:59;12.88;;;9.55;;
54921;SDS011;40824;45.116;21.296;2023-05-29T02:03:25;16.77;;;9.57;;
54921;SDS011;40824;45.116;21.296;2023-05-29T02:05:54;11.32;;;9.45;;
54921;SDS011;40824;45.116;21.296;2023-05-29T02:08:21;10.82;;;9.18;;
54921;SDS011;40824;45.116;21.296;2023-05-29T02:10:47;14.38;;;9.50;;
54921;SDS011;40824;45.116;21.296;2023-05-29T02:13:13;10.25;;;8.57;;
54921;SDS011;40824;45.116;21.296;2023-05-29T02:15:39;14.57;;;9.00;;
54921;SDS011;40824;45.116;21.296;2023-05-29T02:18:08;10.80;;;8.30;;
54921;SDS011;40824;45.116;21.296;2023-05-29T02:20:36;12.15;;;8.50;;
54921;SDS011;40824;45.116;21.296;2023-05-29T02:23:02;10.57;;;8.32;;
54921;SDS011;40824;45.116;21.296;2023-05-29T02:25:28;11.23;;;8.80;;
54921;SDS011;40824;45.116;21.296;2023-05-29T02:27:54;11.95;;;8.15;;
54921;SDS011;40824;45.116;21.296;2023-05-29T02:30:20;10.20;;;8.60;;
54921;SDS011;40824;45.116;21.296;2023-05-29T02:32:46;12.70;;;8.52;;
54921;SDS011;40824;45.116;21.296;2023-05-29T02:35:12;12.00;;;7.68;;
54921;SDS011;40824;45.116;21.296;2023-05-29T02:37:40;11.43;;;8.45;;
54921;SDS011;40824;45.116;21.296;2023-05-29T02:40:09;15.95;;;8.52;;
54921;SDS011;40824;45.116;21.296;2023-05-29T02:42:35;9.43;;;7.65;;
54921;SDS011;40824;45.116;21.296;2023-05-29T02:45:01;8.75;;;7.38;;
54921;SDS011;40824;45.116;21.296;2023-05-29T02:47:27;9.88;;;8.30;;
54921;SDS011;40824;45.116;21.296;2023-05-29T02:49:54;9.52;;;7.60;;
54921;SDS011;40824;45.116;21.296;2023-05-29T02:52:20;9.07;;;7.65;;
54921;SDS011;40824;45.116;21.296;2023-05-29T02:54:48;10.48;;;7.60;;
54921;SDS011;40824;45.116;21.296;2023-05-29T02:57:14;11.57;;;7.25;;
54921;SDS011;40824;45.116;21.296;2023-05-29T02:59:40;10.77;;;7.63;;
54921;SDS011;40824;45.116;21.296;2023-05-29T03:02:07;10.52;;;7.00;;
54921;SDS011;40824;45.116;21.296;2023-05-29T03:04:33;10.20;;;7.90;;
54921;SDS011;40824;45.116;21.296;2023-05-29T03:06:59;10.52;;;6.82;;
54921;SDS011;40824;45.116;21.296;2023-05-29T03:09:25;8.93;;;6.90;;
54921;SDS011;40824;45.116;21.296;2023-05-29T03:11:51;9.57;;;7.30;;
54921;SDS011;40824;45.116;21.296;2023-05-29T03:14:17;10.63;;;7.50;;
54921;SDS011;40824;45.116;21.296;2023-05-29T03:16:44;9.15;;;6.43;;
54921;SDS011;40824;45.116;21.296;2023-05-29T03:19:10;10.52;;;6.72;;
54921;SDS011;40824;45.116;21.296;2023-05-29T03:21:36;10.30;;;6.70;;
54921;SDS011;40824;45.116;21.296;2023-05-29T03:24:03;8.00;;;6.55;;
54921;SDS011;40824;45.116;21.296;2023-05-29T03:26:29;13.45;;;7.25;;
54921;SDS011;40824;45.116;21.296;2023-05-29T03:28:55;10.85;;;7.78;;
54921;SDS011;40824;45.116;21.296;2023-05-29T03:31:21;15.27;;;8.98;;
54921;SDS011;40824;45.116;21.296;2023-05-29T03:33:47;10.75;;;8.20;;
54921;SDS011;40824;45.116;21.296;2023-05-29T03:36:13;13.77;;;7.93;;
54921;SDS011;40824;45.116;21.296;2023-05-29T03:38:42;12.35;;;8.52;;
54921;SDS011;40824;45.116;21.296;2023-05-29T03:41:08;13.65;;;8.40;;
54921;SDS011;40824;45.116;21.296;2023-05-29T03:43:34;10.18;;;7.00;;
54921;SDS011;40824;45.116;21.296;2023-05-29T03:46:01;10.98;;;7.15;;
54921;SDS011;40824;45.116;21.296;2023-05-29T03:48:27;8.90;;;7.00;;
54921;SDS011;40824;45.116;21.296;2023-05-29T03:50:53;9.02;;;7.22;;
54921;SDS011;40824;45.116;21.296;2023-05-29T03:53:19;13.27;;;7.95;;
54921;SDS011;40824;45.116;21.296;2023-05-29T03:55:46;9.80;;;7.20;;
54921;SDS011;40824;45.116;21.296;2023-05-29T03:58:12;12.82;;;7.53;;
54921;SDS011;40824;45.116;21.296;2023-05-29T04:00:39;11.95;;;7.68;;
54921;SDS011;40824;45.116;21.296;2023-05-29T04:03:05;11.60;;;7.32;;
54921;SDS011;40824;45.116;21.296;2023-05-29T04:05:31;11.23;;;8.10;;
54921;SDS011;40824;45.116;21.296;2023-05-29T04:07:57;11.32;;;7.32;;
54921;SDS011;40824;45.116;21.296;2023-05-29T04:10:23;10.98;;;7.90;;
54921;SDS011;40824;45.116;21.296;2023-05-29T04:12:50;16.98;;;8.43;;
54921;SDS011;40824;45.116;21.296;2023-05-29T04:15:16;11.85;;;7.75;;
54921;SDS011;40824;45.116;21.296;2023-05-29T04:17:42;21.15;;;8.10;;
54921;SDS011;40824;45.116;21.296;2023-05-29T04:20:08;12.65;;;7.30;;
54921;SDS011;40824;45.116;21.296;2023-05-29T04:22:35;13.60;;;8.63;;
54921;SDS011;40824;45.116;21.296;2023-05-29T04:25:02;14.57;;;7.78;;
54921;SDS011;40824;45.116;21.296;2023-05-29T04:27:29;12.43;;;7.15;;
54921;SDS011;40824;45.116;21.296;2023-05-29T04:29:55;12.30;;;7.35;;
54921;SDS011;40824;45.116;21.296;2023-05-29T04:32:21;10.73;;;7.40;;
54921;SDS011;40824;45.116;21.296;2023-05-29T04:34:47;13.40;;;7.40;;
54921;SDS011;40824;45.116;21.296;2023-05-29T04:37:15;14.05;;;7.00;;
54921;SDS011;40824;45.116;21.296;2023-05-29T04:39:41;10.20;;;7.07;;
54921;SDS011;40824;45.116;21.296;2023-05-29T04:42:07;10.40;;;6.53;;
54921;SDS011;40824;45.116;21.296;2023-05-29T04:44:33;10.68;;;6.55;;
54921;SDS011;40824;45.116;21.296;2023-05-29T04:46:59;12.27;;;6.57;;
54921;SDS011;40824;45.116;21.296;2023-05-29T04:49:28;16.48;;;6.50;;
54921;SDS011;40824;45.116;21.296;2023-05-29T04:51:54;7.30;;;5.70;;
54921;SDS011;40824;45.116;21.296;2023-05-29T04:54:22;11.13;;;6.80;;
54921;SDS011;40824;45.116;21.296;2023-05-29T04:56:48;10.48;;;6.30;;
54921;SDS011;40824;45.116;21.296;2023-05-29T04:59:14;13.73;;;6.68;;
54921;SDS011;40824;45.116;21.296;2023-05-29T05:01:40;9.52;;;6.97;;
54921;SDS011;40824;45.116;21.296;2023-05-29T05:04:08;11.32;;;6.35;;
54921;SDS011;40824;45.116;21.296;2023-05-29T05:06:34;10.25;;;5.85;;
54921;SDS011;40824;45.116;21.296;2023-05-29T05:09:00;9.63;;;6.15;;
54921;SDS011;40824;45.116;21.296;2023-05-29T05:11:27;8.50;;;6.15;;
54921;SDS011;40824;45.116;21.296;2023-05-29T05:13:53;8.90;;;6.47;;
54921;SDS011;40824;45.116;21.296;2023-05-29T05:16:19;7.80;;;5.80;;
54921;SDS011;40824;45.116;21.296;2023-05-29T05:18:45;8.52;;;6.13;;
54921;SDS011;40824;45.116;21.296;2023-05-29T05:21:11;10.93;;;6.30;;
54921;SDS011;40824;45.116;21.296;2023-05-29T05:23:38;12.30;;;6.50;;
54921;SDS011;40824;45.116;21.296;2023-05-29T05:26:05;8.23;;;6.03;;
54921;SDS011;40824;45.116;21.296;2023-05-29T05:28:42;9.98;;;6.63;;
54921;SDS011;40824;45.116;21.296;2023-05-29T05:31:08;8.18;;;5.80;;
54921;SDS011;40824;45.116;21.296;2023-05-29T05:33:34;13.32;;;6.18;;
54921;SDS011;40824;45.116;21.296;2023-05-29T05:36:01;14.77;;;6.72;;
54921;SDS011;40824;45.116;21.296;2023-05-29T05:38:27;8.80;;;6.25;;
54921;SDS011;40824;45.116;21.296;2023-05-29T05:40:53;9.27;;;6.53;;
54921;SDS011;40824;45.116;21.296;2023-05-29T05:43:19;11.88;;;6.38;;
54921;SDS011;40824;45.116;21.296;2023-05-29T05:45:47;9.45;;;6.43;;
54921;SDS011;40824;45.116;21.296;2023-05-29T05:48:17;11.10;;;6.50;;
54921;SDS011;40824;45.116;21.296;2023-05-29T05:50:43;8.65;;;5.25;;
54921;SDS011;40824;45.116;21.296;2023-05-29T05:53:09;7.40;;;5.63;;
54921;SDS011;40824;45.116;21.296;2023-05-29T05:55:35;8.88;;;5.30;;
54921;SDS011;40824;45.116;21.296;2023-05-29T05:58:01;6.90;;;5.45;;
54921;SDS011;40824;45.116;21.296;2023-05-29T06:00:28;6.88;;;5.05;;
54921;SDS011;40824;45.116;21.296;2023-05-29T06:03:11;8.55;;;5.13;;
54921;SDS011;40824;45.116;21.296;2023-05-29T06:05:37;7.05;;;4.40;;
54921;SDS011;40824;45.116;21.296;2023-05-29T06:08:06;9.35;;;5.10;;
54921;SDS011;40824;45.116;21.296;2023-05-29T06:10:33;9.05;;;4.88;;
54921;SDS011;40824;45.116;21.296;2023-05-29T06:12:59;6.95;;;4.45;;
54921;SDS011;40824;45.116;21.296;2023-05-29T06:15:26;6.72;;;4.32;;
54921;SDS011;40824;45.116;21.296;2023-05-29T06:17:52;9.88;;;5.05;;
54921;SDS011;40824;45.116;21.296;2023-05-29T06:20:20;8.98;;;4.68;;
54921;SDS011;40824;45.116;21.296;2023-05-29T06:22:46;8.40;;;5.15;;
54921;SDS011;40824;45.116;21.296;2023-05-29T06:25:16;7.00;;;4.90;;
54921;SDS011;40824;45.116;21.296;2023-05-29T06:27:43;8.70;;;4.97;;
54921;SDS011;40824;45.116;21.296;2023-05-29T06:30:10;6.53;;;4.55;;
54921;SDS011;40824;45.116;21.296;2023-05-29T06:32:36;6.80;;;4.60;;
54921;SDS011;40824;45.116;21.296;2023-05-29T06:35:02;8.32;;;4.68;;
54921;SDS011;40824;45.116;21.296;2023-05-29T06:37:28;10.55;;;4.88;;
54921;SDS011;40824;45.116;21.296;2023-05-29T06:39:55;6.80;;;4.25;;
54921;SDS011;40824;45.116;21.296;2023-05-29T06:42:21;7.50;;;4.43;;
54921;SDS011;40824;45.116;21.296;2023-05-29T06:44:47;6.22;;;3.95;;
54921;SDS011;40824;45.116;21.296;2023-05-29T06:47:13;9.30;;;5.28;;
54921;SDS011;40824;45.116;21.296;2023-05-29T06:49:39;9.05;;;4.38;;
54921;SDS011;40824;45.116;21.296;2023-05-29T06:52:07;6.47;;;4.05;;
54921;SDS011;40824;45.116;21.296;2023-05-29T06:54:34;6.85;;;3.70;;
54921;SDS011;40824;45.116;21.296;2023-05-29T06:57:00;6.07;;;3.90;;
54921;SDS011;40824;45.116;21.296;2023-05-29T06:59:26;7.68;;;3.90;;
54921;SDS011;40824;45.116;21.296;2023-05-29T07:01:53;5.57;;;4.00;;
54921;SDS011;40824;45.116;21.296;2023-05-29T07:04:19;5.43;;;3.75;;
54921;SDS011;40824;45.116;21.296;2023-05-29T07:06:45;7.13;;;4.05;;
54921;SDS011;40824;45.116;21.296;2023-05-29T07:09:12;7.07;;;4.18;;
54921;SDS011;40824;45.116;21.296;2023-05-29T07:11:38;8.90;;;4.30;;
54921;SDS011;40824;45.116;21.296;2023-05-29T07:14:04;8.23;;;4.70;;
54921;SDS011;40824;45.116;21.296;2023-05-29T07:16:30;7.05;;;4.25;;
54921;SDS011;40824;45.116;21.296;2023-05-29T07:18:56;6.53;;;3.50;;
54921;SDS011;40824;45.116;21.296;2023-05-29T07:21:25;8.10;;;3.67;;
54921;SDS011;40824;45.116;21.296;2023-05-29T07:23:51;9.80;;;4.68;;
54921;SDS011;40824;45.116;21.296;2023-05-29T07:26:19;7.60;;;4.05;;
54921;SDS011;40824;45.116;21.296;2023-05-29T07:28:47;6.00;;;3.95;;
54921;SDS011;40824;45.116;21.296;2023-05-29T07:31:13;6.00;;;3.92;;
54921;SDS011;40824;45.116;21.296;2023-05-29T07:33:40;8.65;;;3.95;;
54921;SDS011;40824;45.116;21.296;2023-05-29T07:36:06;6.20;;;3.80;;
54921;SDS011;40824;45.116;21.296;2023-05-29T07:38:32;6.90;;;3.90;;
54921;SDS011;40824;45.116;21.296;2023-05-29T07:40:58;6.95;;;4.13;;
54921;SDS011;40824;45.116;21.296;2023-05-29T07:43:24;5.75;;;3.90;;
54921;SDS011;40824;45.116;21.296;2023-05-29T07:45:50;8.38;;;3.88;;
54921;SDS011;40824;45.116;21.296;2023-05-29T07:48:16;6.40;;;4.22;;
54921;SDS011;40824;45.116;21.296;2023-05-29T07:50:45;5.15;;;3.78;;
54921;SDS011;40824;45.116;21.296;2023-05-29T07:53:12;7.93;;;3.97;;
54921;SDS011;40824;45.116;21.296;2023-05-29T07:55:38;7.40;;;3.92;;
54921;SDS011;40824;45.116;21.296;2023-05-29T07:58:04;9.60;;;4.78;;
54921;SDS011;40824;45.116;21.296;2023-05-29T08:00:30;7.97;;;4.25;;
54921;SDS011;40824;45.116;21.296;2023-05-29T08:02:56;7.68;;;3.95;;
54921;SDS011;40824;45.116;21.296;2023-05-29T08:05:22;4.78;;;3.83;;
54921;SDS011;40824;45.116;21.296;2023-05-29T08:07:48;6.10;;;3.95;;
54921;SDS011;40824;45.116;21.296;2023-05-29T08:10:15;10.13;;;4.07;;
54921;SDS011;40824;45.116;21.296;2023-05-29T08:12:41;6.65;;;4.07;;
54921;SDS011;40824;45.116;21.296;2023-05-29T08:15:07;8.48;;;4.47;;
54921;SDS011;40824;45.116;21.296;2023-05-29T08:17:33;6.55;;;3.80;;
54921;SDS011;40824;45.116;21.296;2023-05-29T08:20:00;7.65;;;4.45;;
54921;SDS011;40824;45.116;21.296;2023-05-29T08:22:29;13.27;;;5.03;;
54921;SDS011;40824;45.116;21.296;2023-05-29T08:24:55;8.88;;;4.70;;
54921;SDS011;40824;45.116;21.296;2023-05-29T08:27:21;8.15;;;4.50;;
54921;SDS011;40824;45.116;21.296;2023-05-29T08:29:48;6.18;;;4.38;;
54921;SDS011;40824;45.116;21.296;2023-05-29T08:32:14;7.57;;;4.85;;
54921;SDS011;40824;45.116;21.296;2023-05-29T08:34:40;6.03;;;4.50;;
54921;SDS011;40824;45.116;21.296;2023-05-29T08:37:06;7.28;;;4.93;;
54921;SDS011;40824;45.116;21.296;2023-05-29T08:39:32;7.38;;;4.15;;
54921;SDS011;40824;45.116;21.296;2023-05-29T08:42:04;6.85;;;4.63;;
54921;SDS011;40824;45.116;21.296;2023-05-29T08:44:32;8.73;;;4.88;;
54921;SDS011;40824;45.116;21.296;2023-05-29T08:47:00;6.38;;;4.78;;
54921;SDS011;40824;45.116;21.296;2023-05-29T08:49:29;11.75;;;5.25;;
54921;SDS011;40824;45.116;21.296;2023-05-29T08:51:58;5.47;;;4.45;;
54921;SDS011;40824;45.116;21.296;2023-05-29T08:54:26;8.35;;;4.97;;
54921;SDS011;40824;45.116;21.296;2023-05-29T08:56:52;7.60;;;4.70;;
54921;SDS011;40824;45.116;21.296;2023-05-29T08:59:17;6.30;;;4.63;;
54921;SDS011;40824;45.116;21.296;2023-05-29T09:01:45;7.47;;;4.53;;
54921;SDS011;40824;45.116;21.296;2023-05-29T09:04:10;5.60;;;4.60;;
54921;SDS011;40824;45.116;21.296;2023-05-29T09:06:36;5.90;;;4.28;;
54921;SDS011;40824;45.116;21.296;2023-05-29T09:09:03;11.40;;;5.65;;
54921;SDS011;40824;45.116;21.296;2023-05-29T09:11:29;17.65;;;5.20;;
54921;SDS011;40824;45.116;21.296;2023-05-29T09:13:55;17.35;;;6.15;;
54921;SDS011;40824;45.116;21.296;2023-05-29T09:16:23;9.65;;;5.68;;
54921;SDS011;40824;45.116;21.296;2023-05-29T09:18:49;7.88;;;5.03;;
54921;SDS011;40824;45.116;21.296;2023-05-29T09:21:27;10.48;;;6.40;;
54921;SDS011;40824;45.116;21.296;2023-05-29T09:23:54;12.70;;;6.97;;
54921;SDS011;40824;45.116;21.296;2023-05-29T09:26:28;7.80;;;5.47;;
54921;SDS011;40824;45.116;21.296;2023-05-29T09:28:55;8.60;;;5.43;;
54921;SDS011;40824;45.116;21.296;2023-05-29T09:31:21;7.30;;;4.85;;
54921;SDS011;40824;45.116;21.296;2023-05-29T09:33:47;7.38;;;4.65;;
54921;SDS011;40824;45.116;21.296;2023-05-29T09:36:20;10.57;;;5.25;;
54921;SDS011;40824;45.116;21.296;2023-05-29T09:38:47;6.90;;;4.97;;
54921;SDS011;40824;45.116;21.296;2023-05-29T09:41:20;6.70;;;5.00;;
54921;SDS011;40824;45.116;21.296;2023-05-29T09:43:49;5.60;;;4.40;;
54921;SDS011;40824;45.116;21.296;2023-05-29T09:46:16;8.27;;;4.95;;
54921;SDS011;40824;45.116;21.296;2023-05-29T09:48:42;8.63;;;4.70;;
54921;SDS011;40824;45.116;21.296;2023-05-29T09:51:18;7.00;;;4.50;;
54921;SDS011;40824;45.116;21.296;2023-05-29T09:53:46;5.40;;;4.00;;
54921;SDS011;40824;45.116;21.296;2023-05-29T09:56:13;10.05;;;5.00;;
54921;SDS011;40824;45.116;21.296;2023-05-29T09:58:42;5.85;;;4.50;;
54921;SDS011;40824;45.116;21.296;2023-05-29T10:01:14;6.30;;;4.40;;
54921;SDS011;40824;45.116;21.296;2023-05-29T10:03:43;8.63;;;4.50;;
54921;SDS011;40824;45.116;21.296;2023-05-29T10:06:13;6.88;;;3.97;;
54921;SDS011;40824;45.116;21.296;2023-05-29T10:08:46;5.20;;;3.85;;
54921;SDS011;40824;45.116;21.296;2023-05-29T10:11:14;6.07;;;3.55;;
54921;SDS011;40824;45.116;21.296;2023-05-29T10:13:49;6.13;;;3.35;;
54921;SDS011;40824;45.116;21.296;2023-05-29T10:16:17;4.68;;;3.60;;
54921;SDS011;40824;45.116;21.296;2023-05-29T10:18:50;8.50;;;4.53;;
54921;SDS011;40824;45.116;21.296;2023-05-29T10:21:24;7.43;;;6.07;;
54921;SDS011;40824;45.116;21.296;2023-05-29T10:23:51;6.32;;;4.18;;
54921;SDS011;40824;45.116;21.296;2023-05-29T10:26:20;5.45;;;4.50;;
54921;SDS011;40824;45.116;21.296;2023-05-29T10:29:31;4.97;;;3.88;;
54921;SDS011;40824;45.116;21.296;2023-05-29T10:47:56;7.40;;;4.65;;
54921;SDS011;40824;45.116;21.296;2023-05-29T10:50:45;6.50;;;4.05;;
54921;SDS011;40824;45.116;21.296;2023-05-29T10:53:15;6.55;;;4.53;;
54921;SDS011;40824;45.116;21.296;2023-05-29T10:55:48;6.85;;;4.28;;
54921;SDS011;40824;45.116;21.296;2023-05-29T10:58:19;7.32;;;4.50;;
54921;SDS011;40824;45.116;21.296;2023-05-29T11:00:52;10.13;;;4.93;;
54921;SDS011;40824;45.116;21.296;2023-05-29T11:03:21;9.73;;;5.03;;
54921;SDS011;40824;45.116;21.296;2023-05-29T11:08:44;10.45;;;6.55;;
54921;SDS011;40824;45.116;21.296;2023-05-29T11:11:11;15.85;;;7.38;;
54921;SDS011;40824;45.116;21.296;2023-05-29T11:13:39;11.63;;;6.88;;
54921;SDS011;40824;45.116;21.296;2023-05-29T11:18:39;10.17;;;6.50;;
54921;SDS011;40824;45.116;21.296;2023-05-29T11:21:06;8.50;;;6.85;;
54921;SDS011;40824;45.116;21.296;2023-05-29T11:23:38;14.73;;;6.25;;
54921;SDS011;40824;45.116;21.296;2023-05-29T11:26:07;12.02;;;6.00;;
54921;SDS011;40824;45.116;21.296;2023-05-29T11:28:35;8.77;;;6.38;;
54921;SDS011;40824;45.116;21.296;2023-05-29T11:31:01;8.32;;;6.45;;
54921;SDS011;40824;45.116;21.296;2023-05-29T11:33:32;11.85;;;6.57;;
54921;SDS011;40824;45.116;21.296;2023-05-29T11:36:00;9.63;;;6.38;;
54921;SDS011;40824;45.116;21.296;2023-05-29T11:38:27;8.80;;;5.63;;
54921;SDS011;40824;45.116;21.296;2023-05-29T11:40:56;8.52;;;5.88;;
54921;SDS011;40824;45.116;21.296;2023-05-29T11:43:23;11.38;;;5.63;;
54921;SDS011;40824;45.116;21.296;2023-05-29T11:45:50;7.50;;;6.20;;
54921;SDS011;40824;45.116;21.296;2023-05-29T11:48:16;8.15;;;5.82;;
54921;SDS011;40824;45.116;21.296;2023-05-29T11:50:42;11.10;;;7.20;;
54921;SDS011;40824;45.116;21.296;2023-05-29T11:53:08;11.18;;;7.72;;
54921;SDS011;40824;45.116;21.296;2023-05-29T11:55:35;9.60;;;6.88;;
54921;SDS011;40824;45.116;21.296;2023-05-29T11:58:02;10.55;;;7.55;;
54921;SDS011;40824;45.116;21.296;2023-05-29T12:00:35;11.60;;;7.35;;
54921;SDS011;40824;45.116;21.296;2023-05-29T12:03:01;11.38;;;6.82;;
54921;SDS011;40824;45.116;21.296;2023-05-29T12:05:32;9.20;;;6.43;;
54921;SDS011;40824;45.116;21.296;2023-05-29T12:07:58;9.63;;;6.68;;
54921;SDS011;40824;45.116;21.296;2023-05-29T12:10:29;7.40;;;6.50;;
54921;SDS011;40824;45.116;21.296;2023-05-29T12:12:57;10.13;;;6.38;;
54921;SDS011;40824;45.116;21.296;2023-05-29T12:15:23;9.45;;;6.50;;
54921;SDS011;40824;45.116;21.296;2023-05-29T12:17:50;10.82;;;7.03;;
54921;SDS011;40824;45.116;21.296;2023-05-29T12:20:17;9.85;;;6.35;;
54921;SDS011;40824;45.116;21.296;2023-05-29T12:22:43;8.25;;;6.10;;
54921;SDS011;40824;45.116;21.296;2023-05-29T12:27:40;8.48;;;5.93;;
54921;SDS011;40824;45.116;21.296;2023-05-29T12:30:10;9.48;;;7.00;;
54921;SDS011;40824;45.116;21.296;2023-05-29T12:32:39;9.93;;;7.00;;
54921;SDS011;40824;45.116;21.296;2023-05-29T12:35:12;12.38;;;7.78;;
54921;SDS011;40824;45.116;21.296;2023-05-29T12:37:45;11.25;;;6.85;;
54921;SDS011;40824;45.116;21.296;2023-05-29T12:42:41;12.63;;;6.43;;
54921;SDS011;40824;45.116;21.296;2023-05-29T12:45:07;7.68;;;6.15;;
54921;SDS011;40824;45.116;21.296;2023-05-29T12:47:34;8.95;;;5.75;;
54921;SDS011;40824;45.116;21.296;2023-05-29T12:50:25;6.45;;;5.07;;
54921;SDS011;40824;45.116;21.296;2023-05-29T12:52:53;5.45;;;4.85;;
54921;SDS011;40824;45.116;21.296;2023-05-29T12:55:19;7.60;;;5.05;;
54921;SDS011;40824;45.116;21.296;2023-05-29T12:57:46;5.90;;;5.18;;
54921;SDS011;40824;45.116;21.296;2023-05-29T13:00:12;9.20;;;4.57;;
54921;SDS011;40824;45.116;21.296;2023-05-29T13:02:40;6.13;;;4.60;;
54921;SDS011;40824;45.116;21.296;2023-05-29T13:05:07;6.75;;;4.82;;
54921;SDS011;40824;45.116;21.296;2023-05-29T13:07:33;7.10;;;4.97;;
54921;SDS011;40824;45.116;21.296;2023-05-29T13:09:59;9.32;;;4.70;;
54921;SDS011;40824;45.116;21.296;2023-05-29T13:12:26;8.82;;;5.53;;
54921;SDS011;40824;45.116;21.296;2023-05-29T13:14:53;6.53;;;5.60;;
54921;SDS011;40824;45.116;21.296;2023-05-29T13:17:22;8.43;;;5.53;;
54921;SDS011;40824;45.116;21.296;2023-05-29T13:19:48;7.30;;;5.43;;
54921;SDS011;40824;45.116;21.296;2023-05-29T13:22:14;9.27;;;5.47;;
54921;SDS011;40824;45.116;21.296;2023-05-29T13:24:40;8.00;;;5.97;;
54921;SDS011;40824;45.116;21.296;2023-05-29T13:27:06;8.23;;;5.38;;
54921;SDS011;40824;45.116;21.296;2023-05-29T13:29:32;7.97;;;4.97;;
54921;SDS011;40824;45.116;21.296;2023-05-29T13:31:58;5.88;;;4.57;;
54921;SDS011;40824;45.116;21.296;2023-05-29T13:34:24;5.53;;;4.60;;
54921;SDS011;40824;45.116;21.296;2023-05-29T13:36:54;7.10;;;5.25;;
54921;SDS011;40824;45.116;21.296;2023-05-29T13:39:20;7.55;;;5.22;;
54921;SDS011;40824;45.116;21.296;2023-05-29T13:41:46;7.47;;;5.00;;
54921;SDS011;40824;45.116;21.296;2023-05-29T13:44:12;7.28;;;5.10;;
54921;SDS011;40824;45.116;21.296;2023-05-29T13:46:38;6.38;;;4.90;;
54921;SDS011;40824;45.116;21.296;2023-05-29T13:49:03;9.45;;;5.70;;
54921;SDS011;40824;45.116;21.296;2023-05-29T13:51:29;8.40;;;5.20;;
54921;SDS011;40824;45.116;21.296;2023-05-29T13:53:55;5.85;;;4.47;;
54921;SDS011;40824;45.116;21.296;2023-05-29T13:56:21;5.95;;;4.35;;
54921;SDS011;40824;45.116;21.296;2023-05-29T13:58:47;6.38;;;5.05;;
54921;SDS011;40824;45.116;21.296;2023-05-29T14:01:14;7.18;;;4.70;;
54921;SDS011;40824;45.116;21.296;2023-05-29T14:03:43;8.95;;;5.35;;
54921;SDS011;40824;45.116;21.296;2023-05-29T14:06:09;7.78;;;4.95;;
54921;SDS011;40824;45.116;21.296;2023-05-29T14:08:35;6.75;;;5.00;;
54921;SDS011;40824;45.116;21.296;2023-05-29T14:11:02;8.25;;;4.63;;
54921;SDS011;40824;45.116;21.296;2023-05-29T14:13:28;5.53;;;4.30;;
54921;SDS011;40824;45.116;21.296;2023-05-29T14:15:54;5.35;;;4.57;;
54921;SDS011;40824;45.116;21.296;2023-05-29T14:18:22;6.15;;;4.85;;
54921;SDS011;40824;45.116;21.296;2023-05-29T14:20:48;7.72;;;5.15;;
54921;SDS011;40824;45.116;21.296;2023-05-29T14:23:16;8.23;;;5.28;;
54921;SDS011;40824;45.116;21.296;2023-05-29T14:25:42;7.70;;;5.32;;
54921;SDS011;40824;45.116;21.296;2023-05-29T14:28:08;7.18;;;4.90;;
54921;SDS011;40824;45.116;21.296;2023-05-29T14:30:35;8.75;;;5.10;;
54921;SDS011;40824;45.116;21.296;2023-05-29T14:33:01;7.30;;;4.90;;
54921;SDS011;40824;45.116;21.296;2023-05-29T14:35:27;8.82;;;4.90;;
54921;SDS011;40824;45.116;21.296;2023-05-29T14:37:54;8.00;;;4.95;;
54921;SDS011;40824;45.116;21.296;2023-05-29T14:40:19;6.20;;;4.43;;
54921;SDS011;40824;45.116;21.296;2023-05-29T14:42:45;8.88;;;4.53;;
54921;SDS011;40824;45.116;21.296;2023-05-29T14:45:11;6.03;;;4.20;;
54921;SDS011;40824;45.116;21.296;2023-05-29T14:47:37;7.60;;;4.47;;
54921;SDS011;40824;45.116;21.296;2023-05-29T14:50:04;7.68;;;4.82;;
54921;SDS011;40824;45.116;21.296;2023-05-29T14:52:30;6.43;;;4.47;;
54921;SDS011;40824;45.116;21.296;2023-05-29T14:54:56;5.05;;;3.90;;
54921;SDS011;40824;45.116;21.296;2023-05-29T14:57:22;6.72;;;3.88;;
54921;SDS011;40824;45.116;21.296;2023-05-29T14:59:48;5.32;;;4.13;;